sensor_id;sensor_type;location;lat;lon;timestamp;P1;durP1;ratioP1;P2;durP2;ratioP2
46889;SDS011;32625;51.080;16.970;2022-07-05T00:01:01;10.40;;;6.90;;
46889;SDS011;32625;51.080;16.970;2022-07-05T00:03:29;10.38;;;7.18;;
46889;SDS011;32625;51.080;16.970;2022-07-05T00:05:56;12.77;;;7.25;;
46889;SDS011;32625;51.080;16.970;2022-07-05T00:08:24;10.68;;;6.95;;
46889;SDS011;32625;51.080;16.970;2022-07-05T00:10:52;11.25;;;6.70;;
46889;SDS011;32625;51.080;16.970;2022-07-05T00:13:19;10.68;;;7.03;;
46889;SDS011;32625;51.080;16.970;2022-07-05T00:15:46;13.88;;;7.60;;
46889;SDS011;32625;51.080;16.970;2022-07-05T00:18:14;9.55;;;8.57;;
46889;SDS011;32625;51.080;16.970;2022-07-05T00:20:42;11.68;;;9.02;;
46889;SDS011;32625;51.080;16.970;2022-07-05T00:23:09;13.15;;;8.75;;
46889;SDS011;32625;51.080;16.970;2022-07-05T00:25:36;12.80;;;8.07;;
46889;SDS011;32625;51.080;16.970;2022-07-05T00:28:04;13.57;;;8.20;;
46889;SDS011;32625;51.080;16.970;2022-07-05T00:30:31;12.57;;;7.93;;
46889;SDS011;32625;51.080;16.970;2022-07-05T00:32:58;14.38;;;7.20;;
46889;SDS011;32625;51.080;16.970;2022-07-05T00:35:25;27.73;;;8.20;;
46889;SDS011;32625;51.080;16.970;2022-07-05T00:37:53;14.57;;;7.20;;
46889;SDS011;32625;51.080;16.970;2022-07-05T00:40:20;10.45;;;7.15;;
46889;SDS011;32625;51.080;16.970;2022-07-05T00:42:48;10.75;;;7.47;;
46889;SDS011;32625;51.080;16.970;2022-07-05T00:45:15;11.63;;;7.63;;
46889;SDS011;32625;51.080;16.970;2022-07-05T00:47:42;10.40;;;7.60;;
46889;SDS011;32625;51.080;16.970;2022-07-05T00:50:10;10.60;;;7.10;;
46889;SDS011;32625;51.080;16.970;2022-07-05T00:52:37;10.82;;;7.57;;
46889;SDS011;32625;51.080;16.970;2022-07-05T00:55:05;11.13;;;7.47;;
46889;SDS011;32625;51.080;16.970;2022-07-05T00:57:33;15.02;;;8.05;;
46889;SDS011;32625;51.080;16.970;2022-07-05T01:00:00;12.43;;;9.07;;
46889;SDS011;32625;51.080;16.970;2022-07-05T01:02:28;16.98;;;8.77;;
46889;SDS011;32625;51.080;16.970;2022-07-05T01:04:55;12.40;;;7.78;;
46889;SDS011;32625;51.080;16.970;2022-07-05T01:07:23;14.18;;;8.60;;
46889;SDS011;32625;51.080;16.970;2022-07-05T01:09:52;12.82;;;8.57;;
46889;SDS011;32625;51.080;16.970;2022-07-05T01:12:19;13.73;;;9.68;;
46889;SDS011;32625;51.080;16.970;2022-07-05T01:14:47;13.45;;;10.00;;
46889;SDS011;32625;51.080;16.970;2022-07-05T01:17:15;12.43;;;9.80;;
46889;SDS011;32625;51.080;16.970;2022-07-05T01:19:43;12.65;;;10.13;;
46889;SDS011;32625;51.080;16.970;2022-07-05T01:22:19;12.65;;;9.30;;
46889;SDS011;32625;51.080;16.970;2022-07-05T01:24:50;11.65;;;9.63;;
46889;SDS011;32625;51.080;16.970;2022-07-05T01:27:18;13.38;;;9.23;;
46889;SDS011;32625;51.080;16.970;2022-07-05T01:29:46;10.52;;;8.57;;
46889;SDS011;32625;51.080;16.970;2022-07-05T01:32:15;10.60;;;8.48;;
46889;SDS011;32625;51.080;16.970;2022-07-05T01:34:43;11.68;;;8.50;;
46889;SDS011;32625;51.080;16.970;2022-07-05T01:37:11;11.25;;;8.63;;
46889;SDS011;32625;51.080;16.970;2022-07-05T01:39:38;11.80;;;9.38;;
46889;SDS011;32625;51.080;16.970;2022-07-05T01:42:06;14.43;;;10.02;;
46889;SDS011;32625;51.080;16.970;2022-07-05T01:44:34;16.42;;;10.15;;
46889;SDS011;32625;51.080;16.970;2022-07-05T01:47:05;12.88;;;9.40;;
46889;SDS011;32625;51.080;16.970;2022-07-05T01:49:34;12.45;;;8.68;;
46889;SDS011;32625;51.080;16.970;2022-07-05T01:52:08;12.45;;;8.52;;
46889;SDS011;32625;51.080;16.970;2022-07-05T01:54:39;10.70;;;7.55;;
46889;SDS011;32625;51.080;16.970;2022-07-05T01:57:08;15.48;;;7.82;;
46889;SDS011;32625;51.080;16.970;2022-07-05T01:59:36;15.55;;;8.30;;
46889;SDS011;32625;51.080;16.970;2022-07-05T02:02:04;17.73;;;9.00;;
46889;SDS011;32625;51.080;16.970;2022-07-05T02:04:35;18.27;;;8.77;;
46889;SDS011;32625;51.080;16.970;2022-07-05T02:07:08;10.00;;;8.10;;
46889;SDS011;32625;51.080;16.970;2022-07-05T02:09:37;8.90;;;7.05;;
46889;SDS011;32625;51.080;16.970;2022-07-05T02:12:07;16.40;;;8.20;;
46889;SDS011;32625;51.080;16.970;2022-07-05T02:14:35;17.60;;;8.57;;
46889;SDS011;32625;51.080;16.970;2022-07-05T02:17:06;12.38;;;7.68;;
46889;SDS011;32625;51.080;16.970;2022-07-05T02:19:35;12.80;;;7.43;;
46889;SDS011;32625;51.080;16.970;2022-07-05T02:22:06;14.10;;;8.15;;
46889;SDS011;32625;51.080;16.970;2022-07-05T02:24:35;14.05;;;7.65;;
46889;SDS011;32625;51.080;16.970;2022-07-05T02:27:16;11.77;;;7.57;;
46889;SDS011;32625;51.080;16.970;2022-07-05T02:29:45;10.13;;;6.72;;
46889;SDS011;32625;51.080;16.970;2022-07-05T02:32:14;15.70;;;7.47;;
46889;SDS011;32625;51.080;16.970;2022-07-05T02:34:41;11.88;;;7.07;;
46889;SDS011;32625;51.080;16.970;2022-07-05T02:37:11;14.70;;;6.90;;
46889;SDS011;32625;51.080;16.970;2022-07-05T02:39:38;10.73;;;6.90;;
46889;SDS011;32625;51.080;16.970;2022-07-05T02:42:07;10.80;;;7.00;;
46889;SDS011;32625;51.080;16.970;2022-07-05T02:44:35;8.98;;;6.85;;
46889;SDS011;32625;51.080;16.970;2022-07-05T02:47:02;14.02;;;7.78;;
46889;SDS011;32625;51.080;16.970;2022-07-05T02:49:32;11.05;;;6.93;;
46889;SDS011;32625;51.080;16.970;2022-07-05T02:52:02;13.00;;;7.55;;
46889;SDS011;32625;51.080;16.970;2022-07-05T02:54:30;11.63;;;7.63;;
46889;SDS011;32625;51.080;16.970;2022-07-05T02:56:58;7.47;;;6.68;;
46889;SDS011;32625;51.080;16.970;2022-07-05T02:59:26;9.57;;;5.93;;
46889;SDS011;32625;51.080;16.970;2022-07-05T03:01:54;11.43;;;6.68;;
46889;SDS011;32625;51.080;16.970;2022-07-05T03:04:22;10.98;;;6.30;;
46889;SDS011;32625;51.080;16.970;2022-07-05T03:06:53;9.65;;;6.78;;
46889;SDS011;32625;51.080;16.970;2022-07-05T03:09:24;10.85;;;6.25;;
46889;SDS011;32625;51.080;16.970;2022-07-05T03:11:53;13.82;;;6.90;;
46889;SDS011;32625;51.080;16.970;2022-07-05T03:14:20;9.43;;;6.95;;
46889;SDS011;32625;51.080;16.970;2022-07-05T03:16:49;16.70;;;8.00;;
46889;SDS011;32625;51.080;16.970;2022-07-05T03:19:19;15.15;;;7.00;;
46889;SDS011;32625;51.080;16.970;2022-07-05T03:21:46;12.77;;;7.40;;
46889;SDS011;32625;51.080;16.970;2022-07-05T03:24:14;14.98;;;6.63;;
46889;SDS011;32625;51.080;16.970;2022-07-05T03:26:42;13.32;;;6.50;;
46889;SDS011;32625;51.080;16.970;2022-07-05T03:29:09;11.68;;;6.63;;
46889;SDS011;32625;51.080;16.970;2022-07-05T03:31:39;10.20;;;6.57;;
46889;SDS011;32625;51.080;16.970;2022-07-05T03:34:07;10.15;;;6.10;;
46889;SDS011;32625;51.080;16.970;2022-07-05T03:36:35;12.27;;;6.15;;
46889;SDS011;32625;51.080;16.970;2022-07-05T03:39:07;11.57;;;6.25;;
46889;SDS011;32625;51.080;16.970;2022-07-05T03:41:35;8.60;;;6.75;;
46889;SDS011;32625;51.080;16.970;2022-07-05T03:44:04;13.38;;;7.10;;
46889;SDS011;32625;51.080;16.970;2022-07-05T03:46:33;13.38;;;6.57;;
46889;SDS011;32625;51.080;16.970;2022-07-05T03:49:01;11.50;;;6.30;;
46889;SDS011;32625;51.080;16.970;2022-07-05T03:51:28;9.02;;;6.25;;
46889;SDS011;32625;51.080;16.970;2022-07-05T03:53:57;9.60;;;6.78;;
46889;SDS011;32625;51.080;16.970;2022-07-05T03:56:26;9.48;;;6.25;;
46889;SDS011;32625;51.080;16.970;2022-07-05T03:58:58;11.10;;;6.05;;
46889;SDS011;32625;51.080;16.970;2022-07-05T04:01:28;10.30;;;6.32;;
46889;SDS011;32625;51.080;16.970;2022-07-05T04:03:56;14.20;;;6.60;;
46889;SDS011;32625;51.080;16.970;2022-07-05T04:06:27;14.35;;;6.10;;
46889;SDS011;32625;51.080;16.970;2022-07-05T04:08:55;14.43;;;5.90;;
46889;SDS011;32625;51.080;16.970;2022-07-05T04:11:23;17.42;;;7.13;;
46889;SDS011;32625;51.080;16.970;2022-07-05T04:13:52;9.85;;;6.05;;
46889;SDS011;32625;51.080;16.970;2022-07-05T04:16:20;9.40;;;6.00;;
46889;SDS011;32625;51.080;16.970;2022-07-05T04:18:49;11.18;;;5.82;;
46889;SDS011;32625;51.080;16.970;2022-07-05T04:21:16;10.23;;;6.15;;
46889;SDS011;32625;51.080;16.970;2022-07-05T04:23:43;11.60;;;6.95;;
46889;SDS011;32625;51.080;16.970;2022-07-05T04:26:11;12.43;;;6.57;;
46889;SDS011;32625;51.080;16.970;2022-07-05T04:28:41;8.27;;;6.28;;
46889;SDS011;32625;51.080;16.970;2022-07-05T04:31:12;10.75;;;5.88;;
46889;SDS011;32625;51.080;16.970;2022-07-05T04:33:43;8.52;;;6.20;;
46889;SDS011;32625;51.080;16.970;2022-07-05T04:36:14;14.75;;;6.00;;
46889;SDS011;32625;51.080;16.970;2022-07-05T04:38:41;11.73;;;6.05;;
46889;SDS011;32625;51.080;16.970;2022-07-05T04:41:09;10.02;;;6.68;;
46889;SDS011;32625;51.080;16.970;2022-07-05T04:43:37;10.98;;;7.47;;
46889;SDS011;32625;51.080;16.970;2022-07-05T04:46:09;8.90;;;6.40;;
46889;SDS011;32625;51.080;16.970;2022-07-05T04:48:37;7.75;;;6.57;;
46889;SDS011;32625;51.080;16.970;2022-07-05T04:51:07;9.52;;;6.43;;
46889;SDS011;32625;51.080;16.970;2022-07-05T04:53:34;19.08;;;7.03;;
46889;SDS011;32625;51.080;16.970;2022-07-05T04:56:02;24.50;;;8.15;;
46889;SDS011;32625;51.080;16.970;2022-07-05T04:58:29;16.02;;;7.57;;
46889;SDS011;32625;51.080;16.970;2022-07-05T05:00:57;16.40;;;7.78;;
46889;SDS011;32625;51.080;16.970;2022-07-05T05:03:24;11.45;;;7.65;;
46889;SDS011;32625;51.080;16.970;2022-07-05T05:05:52;11.32;;;7.75;;
46889;SDS011;32625;51.080;16.970;2022-07-05T05:08:19;11.98;;;7.53;;
46889;SDS011;32625;51.080;16.970;2022-07-05T05:10:47;17.45;;;7.47;;
46889;SDS011;32625;51.080;16.970;2022-07-05T05:13:14;12.27;;;7.25;;
46889;SDS011;32625;51.080;16.970;2022-07-05T05:15:41;12.65;;;7.57;;
46889;SDS011;32625;51.080;16.970;2022-07-05T05:18:08;12.38;;;7.85;;
46889;SDS011;32625;51.080;16.970;2022-07-05T05:20:36;13.30;;;7.28;;
46889;SDS011;32625;51.080;16.970;2022-07-05T05:23:06;11.20;;;7.25;;
46889;SDS011;32625;51.080;16.970;2022-07-05T05:25:33;10.77;;;7.20;;
46889;SDS011;32625;51.080;16.970;2022-07-05T05:28:02;12.35;;;7.18;;
46889;SDS011;32625;51.080;16.970;2022-07-05T05:30:30;8.45;;;7.07;;
46889;SDS011;32625;51.080;16.970;2022-07-05T05:32:57;11.57;;;8.20;;
46889;SDS011;32625;51.080;16.970;2022-07-05T05:35:24;10.65;;;9.55;;
46889;SDS011;32625;51.080;16.970;2022-07-05T05:37:53;11.13;;;9.05;;
46889;SDS011;32625;51.080;16.970;2022-07-05T05:40:22;10.20;;;9.07;;
46889;SDS011;32625;51.080;16.970;2022-07-05T05:42:51;14.82;;;8.20;;
46889;SDS011;32625;51.080;16.970;2022-07-05T05:45:19;10.73;;;8.60;;
46889;SDS011;32625;51.080;16.970;2022-07-05T05:47:48;8.85;;;7.95;;
46889;SDS011;32625;51.080;16.970;2022-07-05T05:50:20;10.27;;;7.65;;
46889;SDS011;32625;51.080;16.970;2022-07-05T05:52:48;11.70;;;8.18;;
46889;SDS011;32625;51.080;16.970;2022-07-05T05:55:16;10.07;;;7.72;;
46889;SDS011;32625;51.080;16.970;2022-07-05T05:57:44;13.45;;;8.60;;
46889;SDS011;32625;51.080;16.970;2022-07-05T06:00:12;8.88;;;7.97;;
46889;SDS011;32625;51.080;16.970;2022-07-05T06:02:40;10.93;;;8.15;;
46889;SDS011;32625;51.080;16.970;2022-07-05T06:05:08;9.43;;;8.43;;
46889;SDS011;32625;51.080;16.970;2022-07-05T06:07:58;10.60;;;8.35;;
46889;SDS011;32625;51.080;16.970;2022-07-05T06:10:28;11.25;;;7.80;;
46889;SDS011;32625;51.080;16.970;2022-07-05T06:12:58;9.73;;;8.15;;
46889;SDS011;32625;51.080;16.970;2022-07-05T06:15:26;11.13;;;8.30;;
46889;SDS011;32625;51.080;16.970;2022-07-05T06:17:55;12.15;;;8.18;;
46889;SDS011;32625;51.080;16.970;2022-07-05T06:20:25;8.68;;;7.80;;
46889;SDS011;32625;51.080;16.970;2022-07-05T06:23:03;8.73;;;7.30;;
46889;SDS011;32625;51.080;16.970;2022-07-05T06:25:31;11.05;;;7.68;;
46889;SDS011;32625;51.080;16.970;2022-07-05T06:28:04;14.60;;;8.63;;
46889;SDS011;32625;51.080;16.970;2022-07-05T06:30:33;8.93;;;7.78;;
46889;SDS011;32625;51.080;16.970;2022-07-05T06:33:02;9.18;;;8.25;;
46889;SDS011;32625;51.080;16.970;2022-07-05T06:35:30;8.57;;;7.75;;
46889;SDS011;32625;51.080;16.970;2022-07-05T06:38:05;11.13;;;9.18;;
46889;SDS011;32625;51.080;16.970;2022-07-05T06:40:34;11.07;;;8.60;;
46889;SDS011;32625;51.080;16.970;2022-07-05T06:43:05;11.63;;;7.90;;
46889;SDS011;32625;51.080;16.970;2022-07-05T06:45:46;10.20;;;7.82;;
46889;SDS011;32625;51.080;16.970;2022-07-05T06:48:15;9.15;;;8.23;;
46889;SDS011;32625;51.080;16.970;2022-07-05T06:50:42;9.32;;;8.35;;
46889;SDS011;32625;51.080;16.970;2022-07-05T06:53:11;11.88;;;9.52;;
46889;SDS011;32625;51.080;16.970;2022-07-05T06:55:38;13.50;;;9.65;;
46889;SDS011;32625;51.080;16.970;2022-07-05T06:58:18;10.80;;;9.40;;
46889;SDS011;32625;51.080;16.970;2022-07-05T07:00:46;10.23;;;9.05;;
46889;SDS011;32625;51.080;16.970;2022-07-05T07:03:33;11.25;;;10.15;;
46889;SDS011;32625;51.080;16.970;2022-07-05T07:06:21;12.52;;;9.57;;
46889;SDS011;32625;51.080;16.970;2022-07-05T07:08:48;12.05;;;9.60;;
46889;SDS011;32625;51.080;16.970;2022-07-05T07:11:33;12.50;;;10.27;;
46889;SDS011;32625;51.080;16.970;2022-07-05T07:14:01;11.85;;;10.02;;
46889;SDS011;32625;51.080;16.970;2022-07-05T07:16:28;14.25;;;10.70;;
46889;SDS011;32625;51.080;16.970;2022-07-05T07:18:56;12.95;;;11.10;;
46889;SDS011;32625;51.080;16.970;2022-07-05T07:21:41;12.27;;;10.27;;
46889;SDS011;32625;51.080;16.970;2022-07-05T07:24:09;11.65;;;9.80;;
46889;SDS011;32625;51.080;16.970;2022-07-05T07:26:37;17.08;;;11.93;;
46889;SDS011;32625;51.080;16.970;2022-07-05T07:29:24;14.60;;;11.07;;
46889;SDS011;32625;51.080;16.970;2022-07-05T07:31:51;15.25;;;10.85;;
46889;SDS011;32625;51.080;16.970;2022-07-05T07:34:18;12.82;;;11.52;;
46889;SDS011;32625;51.080;16.970;2022-07-05T07:36:45;12.55;;;11.23;;
46889;SDS011;32625;51.080;16.970;2022-07-05T07:39:13;11.90;;;10.70;;
46889;SDS011;32625;51.080;16.970;2022-07-05T07:41:41;12.60;;;11.35;;
46889;SDS011;32625;51.080;16.970;2022-07-05T07:44:08;12.98;;;11.23;;
46889;SDS011;32625;51.080;16.970;2022-07-05T07:46:35;12.90;;;11.60;;
46889;SDS011;32625;51.080;16.970;2022-07-05T07:49:06;12.57;;;10.07;;
46889;SDS011;32625;51.080;16.970;2022-07-05T07:51:34;13.15;;;10.77;;
46889;SDS011;32625;51.080;16.970;2022-07-05T07:54:02;13.35;;;10.70;;
46889;SDS011;32625;51.080;16.970;2022-07-05T07:56:38;19.75;;;11.32;;
46889;SDS011;32625;51.080;16.970;2022-07-05T07:59:06;17.08;;;11.35;;
46889;SDS011;32625;51.080;16.970;2022-07-05T08:01:34;15.25;;;10.55;;
46889;SDS011;32625;51.080;16.970;2022-07-05T08:04:10;13.05;;;9.75;;
46889;SDS011;32625;51.080;16.970;2022-07-05T08:06:40;13.55;;;8.65;;
46889;SDS011;32625;51.080;16.970;2022-07-05T08:09:08;13.98;;;9.00;;
46889;SDS011;32625;51.080;16.970;2022-07-05T08:11:41;12.82;;;8.05;;
46889;SDS011;32625;51.080;16.970;2022-07-05T08:14:09;10.50;;;6.95;;
46889;SDS011;32625;51.080;16.970;2022-07-05T08:16:37;11.70;;;6.57;;
46889;SDS011;32625;51.080;16.970;2022-07-05T08:19:04;7.43;;;5.72;;
46889;SDS011;32625;51.080;16.970;2022-07-05T08:21:50;5.32;;;4.82;;
46889;SDS011;32625;51.080;16.970;2022-07-05T08:24:17;8.95;;;4.82;;
46889;SDS011;32625;51.080;16.970;2022-07-05T08:26:45;9.00;;;4.10;;
46889;SDS011;32625;51.080;16.970;2022-07-05T08:29:12;5.70;;;4.22;;
46889;SDS011;32625;51.080;16.970;2022-07-05T08:31:49;9.63;;;4.57;;
46889;SDS011;32625;51.080;16.970;2022-07-05T08:34:18;13.25;;;5.13;;
46889;SDS011;32625;51.080;16.970;2022-07-05T08:36:46;8.48;;;5.18;;
46889;SDS011;32625;51.080;16.970;2022-07-05T08:39:14;7.65;;;4.30;;
46889;SDS011;32625;51.080;16.970;2022-07-05T08:41:42;6.32;;;4.38;;
46889;SDS011;32625;51.080;16.970;2022-07-05T08:44:14;7.55;;;4.53;;
46889;SDS011;32625;51.080;16.970;2022-07-05T08:46:45;6.30;;;4.45;;
46889;SDS011;32625;51.080;16.970;2022-07-05T08:49:14;8.45;;;4.78;;
46889;SDS011;32625;51.080;16.970;2022-07-05T08:51:49;7.80;;;4.00;;
46889;SDS011;32625;51.080;16.970;2022-07-05T08:54:18;5.13;;;4.25;;
46889;SDS011;32625;51.080;16.970;2022-07-05T08:56:45;4.53;;;3.95;;
46889;SDS011;32625;51.080;16.970;2022-07-05T08:59:33;4.88;;;4.35;;
46889;SDS011;32625;51.080;16.970;2022-07-05T09:02:00;6.03;;;4.28;;
46889;SDS011;32625;51.080;16.970;2022-07-05T09:04:30;5.88;;;4.22;;
46889;SDS011;32625;51.080;16.970;2022-07-05T09:07:03;11.07;;;5.30;;
46889;SDS011;32625;51.080;16.970;2022-07-05T09:09:37;4.68;;;3.90;;
46889;SDS011;32625;51.080;16.970;2022-07-05T09:12:11;7.50;;;4.65;;
46889;SDS011;32625;51.080;16.970;2022-07-05T09:14:50;5.22;;;4.78;;
46889;SDS011;32625;51.080;16.970;2022-07-05T09:17:18;5.78;;;5.00;;
46889;SDS011;32625;51.080;16.970;2022-07-05T09:20:04;6.72;;;4.72;;
46889;SDS011;32625;51.080;16.970;2022-07-05T09:25:22;9.15;;;5.40;;
46889;SDS011;32625;51.080;16.970;2022-07-05T09:27:54;6.05;;;5.47;;
46889;SDS011;32625;51.080;16.970;2022-07-05T09:30:31;6.60;;;5.30;;
46889;SDS011;32625;51.080;16.970;2022-07-05T09:33:08;6.93;;;5.32;;
46889;SDS011;32625;51.080;16.970;2022-07-05T09:35:39;8.23;;;5.65;;
46889;SDS011;32625;51.080;16.970;2022-07-05T09:38:20;6.68;;;5.93;;
46889;SDS011;32625;51.080;16.970;2022-07-05T09:40:52;7.32;;;5.55;;
46889;SDS011;32625;51.080;16.970;2022-07-05T09:43:22;7.50;;;5.63;;
46889;SDS011;32625;51.080;16.970;2022-07-05T09:45:52;8.05;;;6.38;;
46889;SDS011;32625;51.080;16.970;2022-07-05T09:48:30;11.00;;;5.88;;
46889;SDS011;32625;51.080;16.970;2022-07-05T09:51:13;7.78;;;6.00;;
46889;SDS011;32625;51.080;16.970;2022-07-05T09:54:02;7.20;;;6.45;;
46889;SDS011;32625;51.080;16.970;2022-07-05T09:56:47;6.80;;;6.07;;
46889;SDS011;32625;51.080;16.970;2022-07-05T09:59:16;11.27;;;7.80;;
46889;SDS011;32625;51.080;16.970;2022-07-05T10:01:47;9.75;;;6.95;;
46889;SDS011;32625;51.080;16.970;2022-07-05T10:04:15;12.38;;;7.40;;
46889;SDS011;32625;51.080;16.970;2022-07-05T10:06:43;10.73;;;6.75;;
46889;SDS011;32625;51.080;16.970;2022-07-05T10:09:12;10.18;;;6.88;;
46889;SDS011;32625;51.080;16.970;2022-07-05T10:12:20;9.32;;;7.07;;
46889;SDS011;32625;51.080;16.970;2022-07-05T10:14:48;8.27;;;7.47;;
46889;SDS011;32625;51.080;16.970;2022-07-05T10:17:17;6.85;;;6.15;;
46889;SDS011;32625;51.080;16.970;2022-07-05T10:19:45;7.72;;;5.50;;
46889;SDS011;32625;51.080;16.970;2022-07-05T10:22:14;7.03;;;6.40;;
46889;SDS011;32625;51.080;16.970;2022-07-05T10:24:45;9.52;;;6.45;;
46889;SDS011;32625;51.080;16.970;2022-07-05T10:27:14;6.30;;;5.70;;
46889;SDS011;32625;51.080;16.970;2022-07-05T10:29:43;6.50;;;5.85;;
46889;SDS011;32625;51.080;16.970;2022-07-05T10:32:11;7.00;;;4.70;;
46889;SDS011;32625;51.080;16.970;2022-07-05T10:34:40;7.03;;;4.68;;
46889;SDS011;32625;51.080;16.970;2022-07-05T10:37:31;5.35;;;4.70;;
46889;SDS011;32625;51.080;16.970;2022-07-05T10:40:01;6.90;;;5.25;;
46889;SDS011;32625;51.080;16.970;2022-07-05T10:42:38;5.40;;;4.90;;
46889;SDS011;32625;51.080;16.970;2022-07-05T10:45:32;5.78;;;4.65;;
46889;SDS011;32625;51.080;16.970;2022-07-05T10:50:51;6.32;;;4.45;;
46889;SDS011;32625;51.080;16.970;2022-07-05T10:53:24;7.68;;;4.43;;
46889;SDS011;32625;51.080;16.970;2022-07-05T10:58:32;7.43;;;4.78;;
46889;SDS011;32625;51.080;16.970;2022-07-05T11:03:46;7.25;;;4.80;;
46889;SDS011;32625;51.080;16.970;2022-07-05T11:06:24;6.25;;;5.22;;
46889;SDS011;32625;51.080;16.970;2022-07-05T11:11:29;9.10;;;5.10;;
46889;SDS011;32625;51.080;16.970;2022-07-05T11:16:47;7.50;;;5.43;;
46889;SDS011;32625;51.080;16.970;2022-07-05T11:22:25;7.90;;;5.60;;
46889;SDS011;32625;51.080;16.970;2022-07-05T11:24:53;10.02;;;6.82;;
46889;SDS011;32625;51.080;16.970;2022-07-05T11:27:22;9.85;;;6.80;;
46889;SDS011;32625;51.080;16.970;2022-07-05T11:29:55;11.65;;;7.10;;
46889;SDS011;32625;51.080;16.970;2022-07-05T11:32:26;10.30;;;6.40;;
46889;SDS011;32625;51.080;16.970;2022-07-05T11:40:47;10.13;;;7.78;;
46889;SDS011;32625;51.080;16.970;2022-07-05T11:43:29;9.13;;;6.30;;
46889;SDS011;32625;51.080;16.970;2022-07-05T11:45:59;9.65;;;5.40;;
46889;SDS011;32625;51.080;16.970;2022-07-05T11:48:27;6.00;;;4.40;;
46889;SDS011;32625;51.080;16.970;2022-07-05T11:50:55;8.10;;;4.53;;
46889;SDS011;32625;51.080;16.970;2022-07-05T11:53:27;10.80;;;4.35;;
46889;SDS011;32625;51.080;16.970;2022-07-05T11:56:17;8.30;;;4.13;;
46889;SDS011;32625;51.080;16.970;2022-07-05T11:58:44;4.28;;;3.75;;
46889;SDS011;32625;51.080;16.970;2022-07-05T12:01:12;7.90;;;4.30;;
46889;SDS011;32625;51.080;16.970;2022-07-05T12:03:39;4.82;;;3.90;;
46889;SDS011;32625;51.080;16.970;2022-07-05T12:06:13;5.20;;;4.00;;
46889;SDS011;32625;51.080;16.970;2022-07-05T12:08:42;4.35;;;4.05;;
46889;SDS011;32625;51.080;16.970;2022-07-05T12:11:10;4.10;;;3.55;;
46889;SDS011;32625;51.080;16.970;2022-07-05T12:14:11;5.88;;;4.05;;
46889;SDS011;32625;51.080;16.970;2022-07-05T12:16:50;5.40;;;4.15;;
46889;SDS011;32625;51.080;16.970;2022-07-05T12:19:36;5.55;;;3.83;;
46889;SDS011;32625;51.080;16.970;2022-07-05T12:22:03;7.10;;;4.20;;
46889;SDS011;32625;51.080;16.970;2022-07-05T12:24:30;5.15;;;3.75;;
46889;SDS011;32625;51.080;16.970;2022-07-05T12:27:09;5.68;;;3.72;;
46889;SDS011;32625;51.080;16.970;2022-07-05T12:29:37;4.20;;;3.40;;
46889;SDS011;32625;51.080;16.970;2022-07-05T12:32:05;6.85;;;3.92;;
46889;SDS011;32625;51.080;16.970;2022-07-05T12:34:35;5.25;;;3.70;;
46889;SDS011;32625;51.080;16.970;2022-07-05T12:37:03;6.68;;;3.85;;
46889;SDS011;32625;51.080;16.970;2022-07-05T12:39:31;7.10;;;4.07;;
46889;SDS011;32625;51.080;16.970;2022-07-05T12:42:01;5.38;;;2.90;;
46889;SDS011;32625;51.080;16.970;2022-07-05T12:44:29;5.78;;;2.90;;
46889;SDS011;32625;51.080;16.970;2022-07-05T12:47:04;3.53;;;3.20;;
46889;SDS011;32625;51.080;16.970;2022-07-05T12:49:52;9.40;;;3.20;;
46889;SDS011;32625;51.080;16.970;2022-07-05T12:52:21;6.80;;;3.60;;
46889;SDS011;32625;51.080;16.970;2022-07-05T12:55:09;4.15;;;2.90;;
46889;SDS011;32625;51.080;16.970;2022-07-05T12:57:57;6.80;;;3.30;;
46889;SDS011;32625;51.080;16.970;2022-07-05T13:02:58;5.00;;;2.58;;
46889;SDS011;32625;51.080;16.970;2022-07-05T13:05:26;2.95;;;2.53;;
46889;SDS011;32625;51.080;16.970;2022-07-05T13:07:53;8.25;;;2.60;;
46889;SDS011;32625;51.080;16.970;2022-07-05T13:10:26;4.82;;;2.47;;
46889;SDS011;32625;51.080;16.970;2022-07-05T13:15:33;4.45;;;2.90;;
46889;SDS011;32625;51.080;16.970;2022-07-05T13:18:05;3.10;;;2.60;;
46889;SDS011;32625;51.080;16.970;2022-07-05T13:20:33;5.82;;;3.30;;
46889;SDS011;32625;51.080;16.970;2022-07-05T13:23:00;3.53;;;2.80;;
46889;SDS011;32625;51.080;16.970;2022-07-05T13:25:27;6.82;;;3.13;;
46889;SDS011;32625;51.080;16.970;2022-07-05T13:27:54;4.13;;;2.55;;
46889;SDS011;32625;51.080;16.970;2022-07-05T13:30:22;4.78;;;2.67;;
46889;SDS011;32625;51.080;16.970;2022-07-05T13:32:49;4.43;;;2.78;;
46889;SDS011;32625;51.080;16.970;2022-07-05T13:35:17;4.75;;;3.22;;
46889;SDS011;32625;51.080;16.970;2022-07-05T13:37:44;5.88;;;2.67;;
46889;SDS011;32625;51.080;16.970;2022-07-05T13:40:12;3.95;;;2.83;;
46889;SDS011;32625;51.080;16.970;2022-07-05T13:42:39;2.92;;;2.17;;
46889;SDS011;32625;51.080;16.970;2022-07-05T13:45:07;2.70;;;1.90;;
46889;SDS011;32625;51.080;16.970;2022-07-05T13:47:36;3.53;;;2.05;;
46889;SDS011;32625;51.080;16.970;2022-07-05T13:50:03;4.47;;;2.85;;
46889;SDS011;32625;51.080;16.970;2022-07-05T13:52:50;3.78;;;2.13;;
46889;SDS011;32625;51.080;16.970;2022-07-05T13:55:17;2.05;;;1.95;;
46889;SDS011;32625;51.080;16.970;2022-07-05T13:57:44;5.50;;;2.67;;
46889;SDS011;32625;51.080;16.970;2022-07-05T14:00:12;3.53;;;2.10;;
46889;SDS011;32625;51.080;16.970;2022-07-05T14:02:40;3.05;;;2.20;;
46889;SDS011;32625;51.080;16.970;2022-07-05T14:05:09;4.38;;;2.53;;
46889;SDS011;32625;51.080;16.970;2022-07-05T14:07:36;7.75;;;2.80;;
46889;SDS011;32625;51.080;16.970;2022-07-05T14:10:06;6.43;;;2.40;;
46889;SDS011;32625;51.080;16.970;2022-07-05T14:12:34;4.90;;;2.75;;
46889;SDS011;32625;51.080;16.970;2022-07-05T14:15:01;3.05;;;2.15;;
46889;SDS011;32625;51.080;16.970;2022-07-05T14:17:29;3.10;;;1.98;;
46889;SDS011;32625;51.080;16.970;2022-07-05T14:19:56;3.22;;;2.20;;
46889;SDS011;32625;51.080;16.970;2022-07-05T14:22:24;5.53;;;2.17;;
46889;SDS011;32625;51.080;16.970;2022-07-05T14:24:51;5.28;;;2.17;;
46889;SDS011;32625;51.080;16.970;2022-07-05T14:27:19;5.22;;;1.80;;
46889;SDS011;32625;51.080;16.970;2022-07-05T14:29:53;3.08;;;2.35;;
46889;SDS011;32625;51.080;16.970;2022-07-05T14:32:21;4.88;;;2.10;;
46889;SDS011;32625;51.080;16.970;2022-07-05T14:34:48;3.05;;;2.05;;
46889;SDS011;32625;51.080;16.970;2022-07-05T14:37:15;3.78;;;2.00;;
46889;SDS011;32625;51.080;16.970;2022-07-05T14:39:46;3.67;;;2.03;;
46889;SDS011;32625;51.080;16.970;2022-07-05T14:42:14;5.22;;;2.38;;
46889;SDS011;32625;51.080;16.970;2022-07-05T14:44:42;3.90;;;1.80;;
46889;SDS011;32625;51.080;16.970;2022-07-05T14:47:10;3.55;;;2.28;;
46889;SDS011;32625;51.080;16.970;2022-07-05T14:49:38;3.38;;;2.20;;
46889;SDS011;32625;51.080;16.970;2022-07-05T14:52:05;9.63;;;3.55;;
46889;SDS011;32625;51.080;16.970;2022-07-05T14:54:39;2.85;;;1.90;;
46889;SDS011;32625;51.080;16.970;2022-07-05T14:57:06;3.25;;;2.22;;
46889;SDS011;32625;51.080;16.970;2022-07-05T14:59:33;2.58;;;2.00;;
46889;SDS011;32625;51.080;16.970;2022-07-05T15:02:01;4.30;;;2.42;;
46889;SDS011;32625;51.080;16.970;2022-07-05T15:04:29;3.70;;;2.08;;
46889;SDS011;32625;51.080;16.970;2022-07-05T15:06:57;3.97;;;2.35;;
46889;SDS011;32625;51.080;16.970;2022-07-05T15:09:24;6.05;;;2.40;;
46889;SDS011;32625;51.080;16.970;2022-07-05T15:11:51;4.25;;;2.22;;
46889;SDS011;32625;51.080;16.970;2022-07-05T15:14:19;4.38;;;1.98;;